createdAt,value
2019-03-05T00:01:48.385Z,91.50
2019-03-05T00:04:16.761Z,91.40
2019-03-05T00:06:45.073Z,91.40
2019-03-05T00:09:14.997Z,91.30
2019-03-05T00:11:43.272Z,91.30
2019-03-05T00:14:11.564Z,91.20
2019-03-05T00:16:39.878Z,91.20
2019-03-05T00:19:08.157Z,91.30
2019-03-05T00:21:36.661Z,91.30
2019-03-05T00:24:41.684Z,91.00
2019-03-05T00:27:10.131Z,90.80
2019-03-05T00:29:48.479Z,90.40
2019-03-05T00:32:16.831Z,90.30
2019-03-05T00:35:06.676Z,90.30
2019-03-05T00:37:41.108Z,90.10
2019-03-05T00:40:18.262Z,89.60
2019-03-05T00:43:01.025Z,87.90
2019-03-05T00:45:41.110Z,86.40
2019-03-05T00:48:38.473Z,83.90
2019-03-05T00:51:10.113Z,82.50
2019-03-05T00:53:50.614Z,80.50
2019-03-05T00:56:37.441Z,79.60
2019-03-05T00:59:28.889Z,79.50
2019-03-05T01:02:09.418Z,79.40
2019-03-05T01:04:58.892Z,80.30
2019-03-05T01:07:27.715Z,81.10
2019-03-05T01:09:55.979Z,82.10
2019-03-05T01:12:25.211Z,83.00
2019-03-05T01:14:53.811Z,84.20
2019-03-05T01:17:22.087Z,85.00
2019-03-05T01:19:50.390Z,85.90
2019-03-05T01:22:18.662Z,86.60
2019-03-05T01:24:46.932Z,87.00
2019-03-05T01:27:15.265Z,87.70
2019-03-05T01:29:43.604Z,88.20
2019-03-05T01:32:13.591Z,88.50
2019-03-05T01:34:43.534Z,89.00
2019-03-05T01:37:11.839Z,89.40
2019-03-05T01:39:47.700Z,89.60
2019-03-05T01:42:16.022Z,89.80
2019-03-05T01:44:44.296Z,90.00
2019-03-05T01:47:12.567Z,90.20
2019-03-05T01:49:40.886Z,90.40
2019-03-05T01:52:09.228Z,91.10
2019-03-05T01:54:37.587Z,91.00
2019-03-05T01:57:05.962Z,91.20
2019-03-05T01:59:34.305Z,91.50
2019-03-05T02:02:02.663Z,91.70
2019-03-05T02:04:30.985Z,91.80
2019-03-05T02:06:59.380Z,92.00
2019-03-05T02:09:27.717Z,92.10
2019-03-05T02:11:56.032Z,92.20
2019-03-05T02:14:24.478Z,92.30
2019-03-05T02:16:52.844Z,92.30
2019-03-05T02:19:41.040Z,92.40
2019-03-05T02:22:15.871Z,92.40
2019-03-05T02:25:14.753Z,92.80
2019-03-05T02:27:49.266Z,92.70
2019-03-05T02:30:40.692Z,92.70
2019-03-05T02:33:37.954Z,92.70
2019-03-05T02:36:30.494Z,92.70
2019-03-05T02:39:27.684Z,92.70
2019-03-05T02:42:19.909Z,92.60
2019-03-05T02:45:02.966Z,92.90
2019-03-05T02:47:43.292Z,93.10
2019-03-05T02:50:39.319Z,93.30
2019-03-05T02:53:22.990Z,93.60
2019-03-05T02:56:00.108Z,93.60
2019-03-05T02:58:27.496Z,93.90
2019-03-05T03:00:59.863Z,94.10
2019-03-05T03:03:32.921Z,94.20
2019-03-05T03:06:05.798Z,94.10
2019-03-05T03:08:34.243Z,94.00
2019-03-05T03:11:02.597Z,94.00
2019-03-05T03:13:30.908Z,93.80
2019-03-05T03:15:59.185Z,93.80
2019-03-05T03:18:27.612Z,93.70
2019-03-05T03:20:55.886Z,93.60
2019-03-05T03:23:24.244Z,93.40
2019-03-05T03:25:52.566Z,93.30
2019-03-05T03:28:20.945Z,93.30
2019-03-05T03:30:49.344Z,93.40
2019-03-05T03:33:17.706Z,93.30
2019-03-05T03:35:46.105Z,93.40
2019-03-05T03:38:14.496Z,93.80
2019-03-05T03:40:42.791Z,94.90
2019-03-05T03:43:11.096Z,95.90
2019-03-05T03:45:39.388Z,96.30
2019-03-05T03:48:07.696Z,96.30
2019-03-05T03:50:36.099Z,96.50
2019-03-05T03:53:04.581Z,96.40
2019-03-05T03:55:32.858Z,96.10
2019-03-05T03:58:01.307Z,96.10
2019-03-05T04:00:29.625Z,95.90
2019-03-05T04:02:57.906Z,96.10
2019-03-05T04:05:26.194Z,96.00
2019-03-05T04:07:54.511Z,96.10
2019-03-05T04:10:23.019Z,96.10
2019-03-05T04:12:51.385Z,96.50
2019-03-05T04:15:19.817Z,96.70
2019-03-05T04:17:48.122Z,96.90
2019-03-05T04:20:18.744Z,96.40
2019-03-05T04:22:47.081Z,96.40
2019-03-05T04:25:15.370Z,96.40
2019-03-05T04:27:43.720Z,96.40
2019-03-05T04:30:13.664Z,96.50
2019-03-05T04:32:45.021Z,95.90
2019-03-05T04:35:13.611Z,96.00
2019-03-05T04:37:41.988Z,96.40
2019-03-05T04:40:13.374Z,96.90
2019-03-05T04:42:41.657Z,97.10
2019-03-05T04:45:25.180Z,97.20
2019-03-05T04:47:53.471Z,96.80
2019-03-05T04:50:26.212Z,97.00
2019-03-05T04:52:54.731Z,96.40
2019-03-05T04:55:23.003Z,96.10
2019-03-05T04:57:51.278Z,96.00
2019-03-05T05:00:20.123Z,96.20
2019-03-05T05:02:48.418Z,96.20
2019-03-05T05:05:16.702Z,96.50
2019-03-05T05:07:45.030Z,96.00
2019-03-05T05:10:13.304Z,95.90
2019-03-05T05:12:41.579Z,96.00
2019-03-05T05:15:34.141Z,96.00
2019-03-05T05:18:02.428Z,96.20
2019-03-05T05:20:30.699Z,96.00
2019-03-05T05:22:59.008Z,95.90
2019-03-05T05:25:27.309Z,96.20
2019-03-05T05:27:55.639Z,96.60
2019-03-05T05:30:34.669Z,96.60
2019-03-05T05:33:03.377Z,96.90
2019-03-05T05:35:31.658Z,97.30
2019-03-05T05:37:59.960Z,97.50
2019-03-05T05:40:30.933Z,97.80
2019-03-05T05:42:59.204Z,97.40
2019-03-05T05:45:31.038Z,97.10
2019-03-05T05:47:59.359Z,97.50
2019-03-05T05:50:27.650Z,97.40
2019-03-05T05:52:56.011Z,97.20
2019-03-05T05:55:24.281Z,97.20
2019-03-05T05:57:52.560Z,97.30
2019-03-05T06:00:20.864Z,97.10
2019-03-05T06:02:49.145Z,97.10
2019-03-05T06:05:17.557Z,97.20
2019-03-05T06:07:45.855Z,96.90
2019-03-05T06:10:17.157Z,97.00
2019-03-05T06:12:45.432Z,97.00
2019-03-05T06:15:14.879Z,97.20
2019-03-05T06:17:43.161Z,97.30
2019-03-05T06:20:13.741Z,97.40
2019-03-05T06:22:42.055Z,97.40
2019-03-05T06:25:14.606Z,97.30
2019-03-05T06:27:42.927Z,97.50
2019-03-05T06:30:19.220Z,97.50
2019-03-05T06:32:47.502Z,97.30
2019-03-05T06:35:15.867Z,97.30
2019-03-05T06:37:44.167Z,97.50
2019-03-05T06:40:27.153Z,97.40
2019-03-05T06:42:54.810Z,97.40
2019-03-05T06:45:23.144Z,97.40
2019-03-05T06:47:51.637Z,97.20
2019-03-05T06:50:23.869Z,97.10
2019-03-05T06:52:52.212Z,97.20
2019-03-05T06:55:20.624Z,97.30
2019-03-05T06:57:48.973Z,97.40
2019-03-05T07:00:34.963Z,97.20
2019-03-05T07:03:04.544Z,97.00
2019-03-05T07:06:09.590Z,97.00
2019-03-05T07:08:40.638Z,97.00
2019-03-05T07:11:18.234Z,97.00
2019-03-05T07:13:48.061Z,97.20
2019-03-05T07:16:34.780Z,97.20
2019-03-05T07:19:03.306Z,96.90
2019-03-05T07:21:47.006Z,96.90
2019-03-05T07:24:46.492Z,96.70
2019-03-05T07:27:17.270Z,96.50
2019-03-05T07:29:45.540Z,96.30
2019-03-05T07:32:13.892Z,96.20
2019-03-05T07:34:46.308Z,95.80
2019-03-05T07:37:14.611Z,95.90
2019-03-05T07:39:42.999Z,95.70
2019-03-05T07:42:11.434Z,95.70
2019-03-05T07:44:39.808Z,95.60
2019-03-05T07:47:08.180Z,95.40
2019-03-05T07:49:43.693Z,95.70
2019-03-05T07:52:06.510Z,95.60
2019-03-05T07:54:34.912Z,95.50
2019-03-05T07:57:03.320Z,95.40
2019-03-05T07:59:31.719Z,95.20
2019-03-05T08:02:00.027Z,95.10
2019-03-05T08:04:28.300Z,95.00
2019-03-05T08:06:56.649Z,95.10
2019-03-05T08:09:32.093Z,95.10
2019-03-05T08:12:21.686Z,94.90
2019-03-05T08:15:10.813Z,94.70
2019-03-05T08:17:39.130Z,94.50
2019-03-05T08:20:10.914Z,94.50
2019-03-05T08:22:39.206Z,94.60
2019-03-05T08:25:10.944Z,94.20
2019-03-05T08:27:39.227Z,93.80
2019-03-05T08:30:14.862Z,93.80
2019-03-05T08:32:43.433Z,93.70
2019-03-05T08:35:11.885Z,94.00
2019-03-05T08:37:40.191Z,94.20
2019-03-05T08:40:12.995Z,93.20
2019-03-05T08:42:40.588Z,92.80
2019-03-05T08:45:14.270Z,93.20
2019-03-05T08:47:42.766Z,92.80
2019-03-05T08:50:13.210Z,92.50
2019-03-05T08:52:41.510Z,92.50
2019-03-05T08:55:10.942Z,91.90
2019-03-05T08:57:39.240Z,92.30
2019-03-05T09:00:16.797Z,91.80
2019-03-05T09:02:48.876Z,92.10
2019-03-05T09:05:16.484Z,92.40
2019-03-05T09:07:44.757Z,91.50
2019-03-05T09:10:15.834Z,92.30
2019-03-05T09:12:44.207Z,92.10
2019-03-05T09:15:19.613Z,92.00
2019-03-05T09:17:47.877Z,91.60
2019-03-05T09:20:19.885Z,91.10
2019-03-05T09:22:48.603Z,90.70
2019-03-05T09:25:18.059Z,89.10
2019-03-05T09:27:46.481Z,88.10
2019-03-05T09:30:17.848Z,87.00
2019-03-05T09:32:46.177Z,88.30
2019-03-05T09:35:15.815Z,88.10
2019-03-05T09:37:44.819Z,86.90
2019-03-05T09:40:19.281Z,88.20
2019-03-05T09:42:48.009Z,88.90
2019-03-05T09:45:18.028Z,90.00
2019-03-05T09:47:46.300Z,89.60
2019-03-05T09:50:16.376Z,88.40
2019-03-05T09:52:54.541Z,89.30
2019-03-05T09:55:24.586Z,90.20
2019-03-05T09:58:07.009Z,90.80
2019-03-05T10:00:26.992Z,90.70
2019-03-05T10:02:55.476Z,90.70
2019-03-05T10:05:23.757Z,90.20
2019-03-05T10:07:52.116Z,90.60
2019-03-05T10:10:27.871Z,90.50
2019-03-05T10:12:59.010Z,90.60
2019-03-05T10:15:26.956Z,90.60
2019-03-05T10:17:55.324Z,91.10
2019-03-05T10:20:29.606Z,90.60
2019-03-05T10:22:58.196Z,90.70
2019-03-05T10:25:27.276Z,88.40
2019-03-05T10:27:56.584Z,89.30
2019-03-05T10:30:32.410Z,88.60
2019-03-05T10:33:02.337Z,88.90
2019-03-05T10:35:30.685Z,87.80
2019-03-05T10:38:00.468Z,85.70
2019-03-05T10:40:41.472Z,83.80
2019-03-05T10:43:11.528Z,85.10
2019-03-05T10:45:40.804Z,83.40
2019-03-05T10:48:09.513Z,80.20
2019-03-05T10:50:37.913Z,82.50
2019-03-05T10:53:06.197Z,81.20
2019-03-05T10:55:34.608Z,81.30
2019-03-05T10:58:02.965Z,82.20
2019-03-05T11:00:45.802Z,78.60
2019-03-05T11:03:15.010Z,77.00
2019-03-05T11:05:44.702Z,74.70
2019-03-05T11:08:18.455Z,71.60
2019-03-05T11:10:47.118Z,71.40
2019-03-05T11:13:15.942Z,71.40
2019-03-05T11:15:44.778Z,71.40
2019-03-05T11:18:13.423Z,69.70
2019-03-05T11:20:41.853Z,69.10
2019-03-05T11:23:11.720Z,69.00
2019-03-05T11:25:40.317Z,67.50
2019-03-05T11:28:08.760Z,67.30
2019-03-05T11:30:40.127Z,66.80
2019-03-05T11:33:08.597Z,64.00
2019-03-05T11:35:36.891Z,67.60
2019-03-05T11:38:05.348Z,72.30
2019-03-05T11:40:33.788Z,76.80
2019-03-05T11:43:10.101Z,77.30
2019-03-05T11:45:38.533Z,73.30
2019-03-05T11:48:06.873Z,70.30
2019-03-05T11:50:35.246Z,72.30
2019-03-05T11:53:03.776Z,74.20
2019-03-05T11:55:32.136Z,77.10
2019-03-05T11:58:00.565Z,76.00
2019-03-05T12:00:38.363Z,74.80
2019-03-05T12:03:06.682Z,67.90
2019-03-05T12:05:35.120Z,70.30
2019-03-05T12:08:23.079Z,71.20
2019-03-05T12:10:51.414Z,72.60
2019-03-05T12:13:19.758Z,66.10
2019-03-05T12:15:48.134Z,66.80
2019-03-05T12:18:16.435Z,64.60
2019-03-05T12:20:44.817Z,66.30
2019-03-05T12:23:14.567Z,64.10
2019-03-05T12:25:43.101Z,60.60
2019-03-05T12:28:11.610Z,61.70
2019-03-05T12:30:40.235Z,62.50
2019-03-05T12:33:08.638Z,61.90
2019-03-05T12:35:36.960Z,57.80
2019-03-05T12:38:06.908Z,59.60
2019-03-05T12:40:35.201Z,59.90
2019-03-05T12:43:03.524Z,60.50
2019-03-05T12:45:31.923Z,62.20
2019-03-05T12:48:00.305Z,59.60
2019-03-05T12:50:30.017Z,57.40
2019-03-05T12:52:58.478Z,59.90
2019-03-05T12:55:26.826Z,56.70
2019-03-05T12:57:55.108Z,55.40
2019-03-05T13:00:31.422Z,57.20
2019-03-05T13:02:59.776Z,58.90
2019-03-05T13:05:28.070Z,59.50
2019-03-05T13:07:57.680Z,59.50
2019-03-05T13:10:27.294Z,57.50
2019-03-05T13:12:55.664Z,57.90
2019-03-05T13:15:35.340Z,54.60
2019-03-05T13:18:03.635Z,56.50
2019-03-05T13:20:32.042Z,60.60
2019-03-05T13:23:00.364Z,65.50
2019-03-05T13:25:29.912Z,68.70
2019-03-05T13:28:01.950Z,65.10
2019-03-05T13:30:32.636Z,61.80
2019-03-05T13:33:01.146Z,64.00
2019-03-05T13:35:30.824Z,63.00
2019-03-05T13:38:08.930Z,65.40
2019-03-05T13:40:38.358Z,62.10
2019-03-05T13:43:07.088Z,61.70
2019-03-05T13:45:35.538Z,59.60
2019-03-05T13:48:31.240Z,56.70
2019-03-05T13:51:33.453Z,58.30
2019-03-05T13:54:09.473Z,56.80
2019-03-05T13:56:57.627Z,56.60
2019-03-05T13:59:43.319Z,57.90
2019-03-05T14:02:12.489Z,56.50
2019-03-05T14:04:44.086Z,57.70
2019-03-05T14:07:35.378Z,55.40
2019-03-05T14:10:03.803Z,54.20
2019-03-05T14:12:32.145Z,57.10
2019-03-05T14:15:00.532Z,60.80
2019-03-05T14:17:28.971Z,61.70
2019-03-05T14:19:57.321Z,59.00
2019-03-05T14:22:25.707Z,59.30
2019-03-05T14:25:02.155Z,59.40
2019-03-05T14:27:24.136Z,58.60
2019-03-05T14:29:52.479Z,57.90
2019-03-05T14:32:20.944Z,58.40
2019-03-05T14:34:52.727Z,57.50
2019-03-05T14:37:21.085Z,56.10
2019-03-05T14:39:49.433Z,56.80
2019-03-05T14:42:17.841Z,56.40
2019-03-05T14:44:46.169Z,55.20
2019-03-05T14:47:14.562Z,56.40
2019-03-05T14:49:43.080Z,56.40
2019-03-05T14:52:11.484Z,57.60
2019-03-05T14:54:39.780Z,58.60
2019-03-05T14:57:08.192Z,56.10
2019-03-05T14:59:36.596Z,56.20
2019-03-05T15:02:05.009Z,57.00
2019-03-05T15:04:33.422Z,56.60
2019-03-05T15:07:04.538Z,58.70
2019-03-05T15:09:31.843Z,59.90
2019-03-05T15:12:00.377Z,58.20
2019-03-05T15:14:28.724Z,56.70
2019-03-05T15:16:57.033Z,58.20
2019-03-05T15:19:25.414Z,60.10
2019-03-05T15:21:53.923Z,60.10
2019-03-05T15:24:22.377Z,60.50
2019-03-05T15:26:51.006Z,60.80
2019-03-05T15:29:19.388Z,59.40
2019-03-05T15:31:47.742Z,59.80
2019-03-05T15:34:16.243Z,58.40
2019-03-05T15:36:44.628Z,59.90
2019-03-05T15:39:13.036Z,59.90
2019-03-05T15:41:45.744Z,60.40
2019-03-05T15:44:11.622Z,62.40
2019-03-05T15:46:39.958Z,61.80
2019-03-05T15:49:08.276Z,62.60
2019-03-05T15:51:36.641Z,63.80
2019-03-05T15:54:05.025Z,64.10
2019-03-05T15:56:33.383Z,65.20
2019-03-05T15:59:01.676Z,65.80
2019-03-05T16:01:29.975Z,66.60
2019-03-05T16:03:58.251Z,67.20
2019-03-05T16:06:30.077Z,68.70
2019-03-05T16:08:57.878Z,69.60
2019-03-05T16:11:30.213Z,70.20
2019-03-05T16:13:58.012Z,70.50
2019-03-05T16:16:26.523Z,70.90
2019-03-05T16:18:54.820Z,72.10
2019-03-05T16:21:23.089Z,72.70
2019-03-05T16:23:51.384Z,73.30
2019-03-05T16:26:23.770Z,74.40
2019-03-05T16:28:49.823Z,74.70
2019-03-05T16:31:21.711Z,75.60
2019-03-05T16:33:51.453Z,76.50
2019-03-05T16:36:37.961Z,76.80
2019-03-05T16:39:10.849Z,77.00
2019-03-05T16:41:53.352Z,77.60
2019-03-05T16:44:40.359Z,78.30
2019-03-05T16:47:13.105Z,78.60
2019-03-05T16:49:48.419Z,79.20
2019-03-05T16:52:34.789Z,79.60
2019-03-05T16:55:19.988Z,80.00
2019-03-05T16:58:06.443Z,80.60
2019-03-05T17:00:36.354Z,80.80
2019-03-05T17:03:06.292Z,81.60
2019-03-05T17:05:41.944Z,81.90
2019-03-05T17:08:11.889Z,82.50
2019-03-05T17:10:41.931Z,81.70
2019-03-05T17:13:10.309Z,81.80
2019-03-05T17:15:38.750Z,81.80
2019-03-05T17:18:07.029Z,81.60
2019-03-05T17:20:35.424Z,81.50
2019-03-05T17:23:04.832Z,81.50
2019-03-05T17:25:33.095Z,81.20
2019-03-05T17:28:01.403Z,81.10
2019-03-05T17:30:29.854Z,81.10
2019-03-05T17:32:58.212Z,81.30
2019-03-05T17:35:26.540Z,81.80
2019-03-05T17:37:54.906Z,82.10
2019-03-05T17:40:23.246Z,82.90
2019-03-05T17:42:51.717Z,83.70
2019-03-05T17:45:22.788Z,84.80
2019-03-05T17:47:51.440Z,85.40
2019-03-05T17:50:19.794Z,86.80
2019-03-05T17:52:48.389Z,87.10
2019-03-05T17:55:27.409Z,86.90
2019-03-05T17:57:55.749Z,86.40
2019-03-05T18:00:25.796Z,86.30
2019-03-05T18:02:54.075Z,86.40
2019-03-05T18:05:22.379Z,86.60
2019-03-05T18:07:50.869Z,87.00
2019-03-05T18:10:19.219Z,87.00
2019-03-05T18:12:47.568Z,87.90
2019-03-05T18:15:16.737Z,87.30
2019-03-05T18:17:45.034Z,88.10
2019-03-05T18:20:20.997Z,88.40
2019-03-05T18:22:49.577Z,89.60
2019-03-05T18:25:19.898Z,88.70
2019-03-05T18:27:48.350Z,89.10
2019-03-05T18:30:19.802Z,89.50
2019-03-05T18:32:48.222Z,89.20
2019-03-05T18:35:16.518Z,89.00
2019-03-05T18:37:44.878Z,89.60
2019-03-05T18:40:17.670Z,89.90
2019-03-05T18:42:45.346Z,89.10
2019-03-05T18:45:19.496Z,89.90
2019-03-05T18:47:47.770Z,88.80
2019-03-05T18:50:21.170Z,88.70
2019-03-05T18:52:51.833Z,87.40
2019-03-05T18:55:21.987Z,86.10
2019-03-05T18:57:50.341Z,86.30
2019-03-05T19:00:29.825Z,85.90
2019-03-05T19:03:01.564Z,86.30
2019-03-05T19:05:29.868Z,86.80
2019-03-05T19:07:58.411Z,86.50
2019-03-05T19:10:26.779Z,86.50
2019-03-05T19:12:55.158Z,86.70
2019-03-05T19:15:25.425Z,87.10
2019-03-05T19:17:55.221Z,87.00
2019-03-05T19:20:25.823Z,87.10
2019-03-05T19:22:54.310Z,86.60
2019-03-05T19:25:25.941Z,87.00
2019-03-05T19:27:54.429Z,87.10
2019-03-05T19:30:28.495Z,87.50
2019-03-05T19:32:57.033Z,88.40
2019-03-05T19:35:25.302Z,88.80
2019-03-05T19:37:53.620Z,89.30
2019-03-05T19:40:24.439Z,89.10
2019-03-05T19:42:52.718Z,89.20
2019-03-05T19:45:21.047Z,89.40
2019-03-05T19:47:49.322Z,89.30
2019-03-05T19:50:19.216Z,89.70
2019-03-05T19:52:47.536Z,89.70
2019-03-05T19:55:19.666Z,90.00
2019-03-05T19:57:47.984Z,90.40
2019-03-05T20:00:24.175Z,90.50
2019-03-05T20:02:52.538Z,90.60
2019-03-05T20:05:21.112Z,90.80
2019-03-05T20:07:49.514Z,90.80
2019-03-05T20:10:22.906Z,90.80
2019-03-05T20:12:51.363Z,90.90
2019-03-05T20:15:19.785Z,90.80
2019-03-05T20:17:48.456Z,91.00
2019-03-05T20:20:17.276Z,91.10
2019-03-05T20:22:45.571Z,91.20
2019-03-05T20:25:19.826Z,91.20
2019-03-05T20:27:49.796Z,91.30
2019-03-05T20:30:22.001Z,91.50
2019-03-05T20:32:50.483Z,91.50
2019-03-05T20:35:19.129Z,91.50
2019-03-05T20:37:48.414Z,91.50
2019-03-05T20:40:25.377Z,91.60
2019-03-05T20:43:45.920Z,91.60
2019-03-05T20:46:17.760Z,91.50
2019-03-05T20:48:46.175Z,91.50
2019-03-05T20:54:04.720Z,91.50
2019-03-05T20:56:33.088Z,91.40
2019-03-05T20:59:01.451Z,91.60
2019-03-05T21:01:30.105Z,91.60
2019-03-05T21:03:58.457Z,91.70
2019-03-05T21:06:26.891Z,91.50
2019-03-05T21:08:55.209Z,91.40
2019-03-05T21:11:23.560Z,91.40
2019-03-05T21:13:51.878Z,91.40
2019-03-05T21:16:20.264Z,91.40
2019-03-05T21:18:48.852Z,91.50
2019-03-05T21:21:17.203Z,91.60
2019-03-05T21:23:45.724Z,91.70
2019-03-05T21:26:14.077Z,91.80
2019-03-05T21:28:42.424Z,91.70
2019-03-05T21:31:11.043Z,91.80
2019-03-05T21:33:39.466Z,91.90
2019-03-05T21:36:07.752Z,91.90
2019-03-05T21:38:36.069Z,91.90
2019-03-05T21:41:04.457Z,91.90
2019-03-05T21:43:33.289Z,92.00
2019-03-05T21:46:04.963Z,92.10
2019-03-05T21:48:33.321Z,92.20
2019-03-05T21:51:01.606Z,92.20
2019-03-05T21:53:30.083Z,92.20
2019-03-05T21:55:58.658Z,92.10
2019-03-05T21:58:26.994Z,92.10
2019-03-05T22:00:55.389Z,92.10
2019-03-05T22:03:23.815Z,92.10
2019-03-05T22:05:52.163Z,92.10
2019-03-05T22:08:20.779Z,92.10
2019-03-05T22:10:49.164Z,92.60
2019-03-05T22:13:17.533Z,92.90
2019-03-05T22:15:45.834Z,93.10
2019-03-05T22:18:14.117Z,93.00
2019-03-05T22:20:42.808Z,93.30
2019-03-05T22:23:11.138Z,93.40
2019-03-05T22:25:39.439Z,93.50
2019-03-05T22:28:09.039Z,93.90
2019-03-05T22:30:38.478Z,94.20
2019-03-05T22:33:07.181Z,94.30
2019-03-05T22:35:35.476Z,94.30
2019-03-05T22:38:03.969Z,94.50
2019-03-05T22:40:32.355Z,94.60
2019-03-05T22:43:00.987Z,94.60
2019-03-05T22:45:33.874Z,94.70
2019-03-05T22:48:02.634Z,94.70
2019-03-05T22:50:31.108Z,94.80
2019-03-05T22:52:59.523Z,94.90
2019-03-05T22:55:27.883Z,95.00
2019-03-05T22:57:56.565Z,95.20
2019-03-05T23:01:01.318Z,95.50
2019-03-05T23:03:31.035Z,95.70
2019-03-05T23:06:01.310Z,96.00
2019-03-05T23:08:29.846Z,96.20
2019-03-05T23:10:58.119Z,96.40
2019-03-05T23:13:26.554Z,96.50
2019-03-05T23:15:54.897Z,96.60
2019-03-05T23:18:23.262Z,96.80
2019-03-05T23:20:51.644Z,96.90
2019-03-05T23:23:20.515Z,96.90
2019-03-05T23:25:48.868Z,97.10
2019-03-05T23:28:17.155Z,97.20
2019-03-05T23:30:45.465Z,97.30
2019-03-05T23:33:13.845Z,97.40
2019-03-05T23:35:42.176Z,97.60
2019-03-05T23:38:10.464Z,97.60
2019-03-05T23:40:38.743Z,97.70
2019-03-05T23:43:07.244Z,97.80
2019-03-05T23:45:35.532Z,98.00
2019-03-05T23:48:03.995Z,98.00
2019-03-05T23:50:32.423Z,98.10
2019-03-05T23:53:00.744Z,98.30
2019-03-05T23:55:29.417Z,98.40
2019-03-05T23:57:57.802Z,98.40
